Hauptseite
METAR-TAF:

METAR-TAF

Flughäfen :

Flughafen Andorra

La Seu d’Urgell, Spanien

Breite: 42-20-29N, Länge: 001-24-17E, Höhe: 802 m

METAR: fehlend

Zeit: 14:39 (12:39 UTC)

Prognose

Neuester Wetterbericht von vor 22 Stunden und 39 Minuten, um 14:00 UTC
Gültige Prognose vom 06 um 15 UTC bis 07 um 15 UTC
Wind 4 kt aus unterschiedlichen Richtungen
Sichtweite 10 km oder mehr
Leicht bewölkt in der Höhe von 5000 ft
Zeitweise
vom 06 um 15 UTC bis 06 um 18 UTC
Wind 10 kt aus Süd/Südwest
Zeitweise
vom 07 um 12 UTC bis 07 um 15 UTC
Wind 10 kt aus Süd/Südwest

TAF: LESU 061400Z 0615/0715 VRB04KT 9999 FEW050 TX18/0712Z TN07/0706Z TEMPO 0615/0618 21010KT TEMPO 0712/0715 21010KT

Wetterbeobachtungen und Prognosen von mehr als 4000 Flughäfen (METAR und TAF Bericht).

Die verfügbaren Stationen werden durch gelbe und rote Markierungen auf der Karte dargestellt.

Führen Sie die Maus auf sie, um den Namen der Station zu sehen.

Darauf klicken, um die Beobachtung von Wetterbeobachtungen und Prognosen zu sehen.

Um die Karte zu ändern : klicken Sie auf den grünen Tasten mit einem schwarzen Kreuz Zum Vergrößern, auf den grünen Button mit einem Gedankenstrich zu verkleinern, oder auf die grünen Pfeile für benachbarte Karten.


METAR-TAF: